createdAt,value
2022-11-07T04:17:20.448Z,22.53
2022-11-07T04:20:30.481Z,24.20
2022-11-07T04:23:40.327Z,26.27
2022-11-07T04:27:01.178Z,22.53
2022-11-07T04:30:20.412Z,21.63
2022-11-07T04:33:31.604Z,21.47
2022-11-07T04:36:41.485Z,20.73
2022-11-07T04:39:51.330Z,22.07
2022-11-07T04:43:01.212Z,22.50
2022-11-07T04:46:11.063Z,20.63
2022-11-07T04:49:22.263Z,21.63
2022-11-07T04:52:32.138Z,22.63
2022-11-07T04:55:42.014Z,24.50
2022-11-07T04:58:51.870Z,23.10
2022-11-07T05:02:02.407Z,26.53
2022-11-07T05:05:14.325Z,22.00
2022-11-07T05:08:24.179Z,23.20
2022-11-07T05:11:34.039Z,24.73
2022-11-07T05:14:43.895Z,22.93
2022-11-07T05:17:53.759Z,27.37
2022-11-07T05:21:05.035Z,25.63
2022-11-07T05:24:15.262Z,25.20
2022-11-07T05:27:25.824Z,25.70
2022-11-07T05:30:39.440Z,22.50
2022-11-07T05:33:49.318Z,36.97
2022-11-07T05:37:00.456Z,22.93
2022-11-07T05:40:11.038Z,22.03
2022-11-07T05:43:20.891Z,22.27
2022-11-07T05:46:31.020Z,25.20
2022-11-07T05:49:40.867Z,24.23
2022-11-07T05:52:52.227Z,29.33
2022-11-07T05:56:02.394Z,34.67
2022-11-07T05:59:12.858Z,36.73
2022-11-07T08:47:29.430Z,25.10
2022-11-07T08:50:39.379Z,23.73
2022-11-07T08:53:49.213Z,26.33
2022-11-07T08:56:59.042Z,27.40
2022-11-07T09:00:09.869Z,23.23
2022-11-07T09:03:44.160Z,19.50
2022-11-07T09:06:54.396Z,18.77
2022-11-07T09:10:04.612Z,23.30
2022-11-07T09:13:15.630Z,19.40
2022-11-07T09:16:25.975Z,18.37
2022-11-07T09:19:37.174Z,25.13
2022-11-07T09:22:47.307Z,19.40
2022-11-07T09:26:00.621Z,19.13
2022-11-07T09:29:10.477Z,20.73
2022-11-07T09:32:43.479Z,21.27
2022-11-07T09:35:51.618Z,19.83
2022-11-07T09:39:01.534Z,21.13
2022-11-07T09:42:22.426Z,21.67
2022-11-07T09:45:36.467Z,23.13
2022-11-07T09:48:52.371Z,25.53
2022-11-07T09:52:13.501Z,26.97
2022-11-07T09:55:28.015Z,22.57
2022-11-07T09:58:41.343Z,19.10
2022-11-07T10:01:51.434Z,19.27
2022-11-07T10:05:04.838Z,20.50
2022-11-07T10:08:25.188Z,18.80
2022-11-07T10:11:38.324Z,18.07
2022-11-07T10:14:59.303Z,21.53
2022-11-07T10:18:21.952Z,20.13
2022-11-07T10:21:41.315Z,23.93
2022-11-07T10:25:06.199Z,21.77
2022-11-07T10:28:18.037Z,22.63
2022-11-07T10:31:32.860Z,25.03
2022-11-07T10:34:53.107Z,31.13
2022-11-07T10:38:18.469Z,29.30
2022-11-07T10:41:31.276Z,35.23
2022-11-07T10:44:43.454Z,36.70
2022-11-07T10:47:58.411Z,33.23
2022-11-07T10:51:08.288Z,36.17
2022-11-07T10:54:22.361Z,34.07
2022-11-07T10:57:35.355Z,34.83
2022-11-07T11:00:45.969Z,34.83
2022-11-07T11:03:55.874Z,36.60
2022-11-07T11:07:11.336Z,35.20
2022-11-07T11:10:29.200Z,36.43
2022-11-07T11:13:40.361Z,34.07
2022-11-07T11:16:54.465Z,33.07
2022-11-07T11:20:05.978Z,33.00
2022-11-07T11:23:21.268Z,35.53
2022-11-07T11:26:34.591Z,30.63
2022-11-07T11:29:51.717Z,29.43
2022-11-07T11:33:07.894Z,27.90
2022-11-07T11:36:20.829Z,26.77
2022-11-07T11:39:38.300Z,26.77
2022-11-07T11:42:52.561Z,28.57
2022-11-07T11:46:12.370Z,28.00
2022-11-07T11:49:26.333Z,29.60
2022-11-07T11:52:36.482Z,31.40
2022-11-07T11:55:55.291Z,31.30
2022-11-07T11:59:25.074Z,28.57
2022-11-07T12:02:47.717Z,28.80
2022-11-07T12:06:12.905Z,28.60
2022-11-07T12:09:34.055Z,26.40
2022-11-07T12:13:03.726Z,30.23
2022-11-07T12:16:23.718Z,39.63
2022-11-07T12:19:44.204Z,33.17
2022-11-07T12:23:11.372Z,28.37
2022-11-07T12:26:27.856Z,28.47
2022-11-07T12:29:56.141Z,32.53
2022-11-07T12:33:16.053Z,29.60
2022-11-07T12:36:40.731Z,28.00
2022-11-07T12:40:04.577Z,28.60
2022-11-07T12:43:30.851Z,28.50
2022-11-07T12:46:50.127Z,30.87
2022-11-07T12:50:12.484Z,29.70
2022-11-07T12:53:36.396Z,29.37
2022-11-07T12:56:47.625Z,28.60
2022-11-07T13:00:03.197Z,28.50
2022-11-07T13:03:31.461Z,28.03
2022-11-07T13:06:45.054Z,36.43
2022-11-07T13:10:03.550Z,30.87
2022-11-07T13:13:22.113Z,28.37
2022-11-07T13:16:35.473Z,31.07
2022-11-07T13:19:47.826Z,31.37
2022-11-07T13:23:02.366Z,29.90
2022-11-07T13:26:45.312Z,29.33
2022-11-07T13:29:45.206Z,29.57
2022-11-07T13:32:55.080Z,32.40
2022-11-07T13:36:15.390Z,30.80
2022-11-07T13:39:26.580Z,33.73
2022-11-07T13:42:38.195Z,31.60
2022-11-07T13:45:51.435Z,32.37
2022-11-07T13:49:03.906Z,34.77
2022-11-07T13:52:21.398Z,31.87
2022-11-07T13:55:47.227Z,33.97
2022-11-07T13:59:01.183Z,32.23
2022-11-07T14:02:20.424Z,31.27
2022-11-07T14:05:34.828Z,32.77
2022-11-07T14:08:46.972Z,35.10
2022-11-07T14:11:58.339Z,29.97
2022-11-07T14:15:16.495Z,30.27
2022-11-07T14:18:29.937Z,28.17
2022-11-07T14:21:39.840Z,29.07
2022-11-07T14:24:52.563Z,28.37
2022-11-07T14:28:02.984Z,26.83
2022-11-07T14:31:20.352Z,29.20
2022-11-07T14:34:30.333Z,25.67
2022-11-07T14:37:40.335Z,24.77
2022-11-07T14:40:51.244Z,23.17
2022-11-07T14:44:04.680Z,23.60
2022-11-07T14:47:21.035Z,24.93
2022-11-07T14:50:31.195Z,23.53
2022-11-07T14:53:49.950Z,22.93
2022-11-07T14:57:00.706Z,22.63
2022-11-07T15:00:16.046Z,21.13
2022-11-07T15:03:34.057Z,23.90
2022-11-07T15:06:45.354Z,21.87
2022-11-07T15:09:57.254Z,20.17
2022-11-07T15:13:24.400Z,18.87
2022-11-07T15:16:38.876Z,19.33
2022-11-07T15:19:57.905Z,24.43
2022-11-07T15:23:23.362Z,19.93
2022-11-07T15:26:35.124Z,19.97
2022-11-07T15:29:52.404Z,20.33
2022-11-07T15:33:02.316Z,22.00
2022-11-07T15:36:16.006Z,21.20
2022-11-07T15:39:26.395Z,25.83
2022-11-07T15:42:36.242Z,23.60
2022-11-07T15:45:47.503Z,29.50
2022-11-07T15:48:58.175Z,31.47
2022-11-07T15:52:11.021Z,22.63
2022-11-07T15:55:22.276Z,26.67
2022-11-07T15:58:32.273Z,24.67
2022-11-07T16:01:42.493Z,24.07
2022-11-07T16:04:52.444Z,24.33
2022-11-07T16:08:03.851Z,22.80
2022-11-07T16:11:13.775Z,25.17
2022-11-07T16:14:43.525Z,22.57
2022-11-07T16:17:53.454Z,22.60
2022-11-07T16:21:03.297Z,22.90
2022-11-07T16:24:16.475Z,23.20
2022-11-07T16:27:26.352Z,24.23
2022-11-07T16:30:36.414Z,23.80
2022-11-07T16:33:46.337Z,24.13
2022-11-07T16:36:56.233Z,23.07
2022-11-07T16:40:09.765Z,22.80
2022-11-07T16:43:19.873Z,25.70
2022-11-07T16:46:35.304Z,24.47
2022-11-07T16:49:45.163Z,36.13
2022-11-07T16:52:55.038Z,27.50
2022-11-07T16:56:06.822Z,23.60
2022-11-07T16:59:19.654Z,26.27
2022-11-07T17:02:29.703Z,20.80
2022-11-07T17:05:39.750Z,26.40
2022-11-07T17:08:49.671Z,24.63
2022-11-07T17:12:00.812Z,23.77
2022-11-07T17:15:11.261Z,25.53
2022-11-07T17:18:21.936Z,22.70
2022-11-07T17:21:33.496Z,26.80
2022-11-07T17:24:45.082Z,28.57
2022-11-07T17:27:56.272Z,24.90
2022-11-07T17:31:06.284Z,25.93
2022-11-07T17:34:16.181Z,26.37
2022-11-07T17:37:26.172Z,25.93
2022-11-07T17:40:36.381Z,25.53
2022-11-07T17:43:48.840Z,23.53
2022-11-07T17:47:01.874Z,23.90
2022-11-07T17:50:15.770Z,23.77
2022-11-07T17:53:25.664Z,24.43
2022-11-07T17:56:35.771Z,20.70
2022-11-07T17:59:46.959Z,24.37
2022-11-07T18:02:57.016Z,25.67
2022-11-07T18:06:07.183Z,23.33
2022-11-07T18:09:17.303Z,34.63
2022-11-07T18:12:27.196Z,26.90
2022-11-07T18:15:39.746Z,39.20
2022-11-07T18:18:49.606Z,31.07
2022-11-07T18:21:59.554Z,28.97
2022-11-07T18:25:10.090Z,40.80
2022-11-07T18:28:20.077Z,29.70
2022-11-07T18:31:31.391Z,28.33
2022-11-07T18:34:41.265Z,41.10
2022-11-07T18:37:51.618Z,41.73
2022-11-07T18:41:03.637Z,37.47
2022-11-07T18:44:13.873Z,37.20
2022-11-07T18:47:25.184Z,34.43
2022-11-07T18:50:36.877Z,32.70
2022-11-07T18:53:46.786Z,36.53
2022-11-07T18:56:56.692Z,29.83
2022-11-07T19:00:13.079Z,32.73
2022-11-07T19:03:24.989Z,32.37
2022-11-07T19:06:35.802Z,35.03
2022-11-07T19:09:45.751Z,37.77
2022-11-07T19:12:55.887Z,35.93
2022-11-07T19:16:09.437Z,30.47
2022-11-07T19:19:20.853Z,30.00
2022-11-07T19:22:31.691Z,29.17
2022-11-07T19:25:41.770Z,35.20
2022-11-07T19:28:53.890Z,38.97
2022-11-07T19:32:03.815Z,32.40
2022-11-07T19:35:16.123Z,30.93
2022-11-07T19:38:26.299Z,33.10
2022-11-07T19:41:36.152Z,39.47
2022-11-07T19:44:50.451Z,42.00
2022-11-07T19:48:02.698Z,34.90
2022-11-07T19:51:21.311Z,37.40
2022-11-07T19:54:31.753Z,32.87
2022-11-07T19:57:41.632Z,36.53
2022-11-07T20:00:51.579Z,36.30
2022-11-07T20:04:02.562Z,37.83
2022-11-07T20:07:13.987Z,28.77
2022-11-07T20:10:24.669Z,29.83
2022-11-07T20:13:34.765Z,29.30
2022-11-07T20:16:44.687Z,28.40
2022-11-07T20:19:54.582Z,40.00
2022-11-07T20:23:05.764Z,31.27
2022-11-07T20:26:17.992Z,32.60
2022-11-07T20:29:27.852Z,31.43
2022-11-07T20:32:37.863Z,30.27
2022-11-07T20:35:48.027Z,30.90
2022-11-07T20:39:00.120Z,28.77
2022-11-07T20:42:10.000Z,29.27
2022-11-07T20:45:19.885Z,31.57
2022-11-07T20:48:29.814Z,30.77
2022-11-07T20:51:40.505Z,29.30
2022-11-07T20:54:51.678Z,30.40
2022-11-07T20:58:03.590Z,34.37
2022-11-07T21:01:15.935Z,40.87
2022-11-07T21:04:27.279Z,37.43
2022-11-07T21:07:37.143Z,31.87
2022-11-07T21:10:50.396Z,31.60
